PWSweather.com
Personal Weather Stations
Station Observations
KCOBLACK1
Chalet Park, Black Hawk, CO 80422

Chalet ParkBlack Hawk, CO 80422

Lat: 39.8294, Lon: -105.48

Elevation: 9370

Station Type: Vantage Pro2

http://www.oscaranddeb.com/weather

High Low Average
Temperature 40.9°F4.9°C 28.4°F-2.0°C 33.5°F0.8°C
Dew Point 17.9°F-7.8°C 14.6°F-9.7°C 16.4°F-8.7°C
Winds 59.0 mph 95.0 kmh 3.0 mph 4.8 kmh 27.0 mph WSW43.5 kmh WSW
Wind Gusts 75.0 mph120.7 kmh 20.0 mph32.2 kmh 51.0 mph82.1 kmh
Humidity 60% 34% 50%
Pressure 29.74 in1007.1 mb 29.48 in998.3 mb -
Precipitation 0.01 in0.3 mm - -
Hour Temp Dew Point Humidity Winds Wind Gusts Pressure Precip Precip Rate Daily Precip Total
12:00 AM 28.4°F-2.0°C 15.1°F-9.4°C 57% 31.0 mph W49.9 kmh W 47.0 mph75.6 kmh 29.72 in1006.4 mb 0.00 in0.0 mm 0.00 in/hr0.0 mm/hr 0.01 in0.3 mm
12:05 AM 28.5°F-1.9°C 14.8°F-9.6°C 56% 32.0 mph WSW51.5 kmh WSW 54.0 mph86.9 kmh 29.72 in1006.4 mb 0.00 in0.0 mm 0.00 in/hr0.0 mm/hr 0.00 in0.0 mm
12:12 AM 28.8°F-1.8°C 14.6°F-9.7°C 55% 20.0 mph WSW32.2 kmh WSW 59.0 mph95.0 kmh 29.72 in1006.4 mb 0.00 in0.0 mm 0.00 in/hr0.0 mm/hr 0.00 in0.0 mm
12:15 AM 29.0°F-1.7°C 14.8°F-9.6°C 55% 38.0 mph SW61.2 kmh SW 53.0 mph85.3 kmh 29.73 in1006.8 mb 0.00 in0.0 mm 0.00 in/hr0.0 mm/hr 0.00 in0.0 mm
12:20 AM 29.0°F-1.7°C 14.8°F-9.6°C 55% 45.0 mph W72.4 kmh W 57.0 mph91.7 kmh 29.73 in1006.8 mb 0.00 in0.0 mm 0.00 in/hr0.0 mm/hr 0.00 in0.0 mm
12:25 AM 29.3°F-1.5°C 14.7°F-9.6°C 54% 22.0 mph WNW35.4 kmh WNW 55.0 mph88.5 kmh 29.73 in1006.8 mb 0.00 in0.0 mm 0.00 in/hr0.0 mm/hr 0.00 in0.0 mm
12:30 AM 28.8°F-1.8°C 14.6°F-9.7°C 55% 27.0 mph S43.5 kmh S 59.0 mph95.0 kmh 29.72 in1006.4 mb 0.00 in0.0 mm 0.00 in/hr0.0 mm/hr 0.00 in0.0 mm
12:35 AM 28.8°F-1.8°C 14.6°F-9.7°C 55% 57.0 mph W91.7 kmh W 50.0 mph80.5 kmh 29.72 in1006.4 mb 0.00 in0.0 mm 0.00 in/hr0.0 mm/hr 0.00 in0.0 mm
12:40 AM 29.3°F-1.5°C 15.1°F-9.4°C 55% 17.0 mph W27.4 kmh W 75.0 mph120.7 kmh 29.72 in1006.4 mb 0.00 in0.0 mm 0.00 in/hr0.0 mm/hr 0.00 in0.0 mm
12:45 AM 29.1°F-1.6°C 14.9°F-9.5°C 55% 27.0 mph WSW43.5 kmh WSW 59.0 mph95.0 kmh 29.69 in1005.4 mb 0.00 in0.0 mm 0.00 in/hr0.0 mm/hr 0.00 in0.0 mm
12:50 AM 29.3°F-1.5°C 15.1°F-9.4°C 55% 27.0 mph WNW43.5 kmh WNW 60.0 mph96.6 kmh 29.69 in1005.4 mb 0.00 in0.0 mm 0.00 in/hr0.0 mm/hr 0.00 in0.0 mm
12:55 AM 29.4°F-1.4°C 15.2°F-9.3°C 55% 25.0 mph W40.2 kmh W 63.0 mph101.4 kmh 29.69 in1005.4 mb 0.00 in0.0 mm 0.00 in/hr0.0 mm/hr 0.00 in0.0 mm
01:00 AM 29.4°F-1.4°C 15.2°F-9.3°C 55% 46.0 mph WNW74.0 kmh WNW 69.0 mph111.0 kmh 29.68 in1005.1 mb 0.00 in0.0 mm 0.00 in/hr0.0 mm/hr 0.00 in0.0 mm
01:05 AM 29.3°F-1.5°C 15.1°F-9.4°C 55% 35.0 mph W56.3 kmh W 57.0 mph91.7 kmh 29.68 in1005.1 mb 0.00 in0.0 mm 0.00 in/hr0.0 mm/hr 0.00 in0.0 mm
01:10 AM 29.3°F-1.5°C 15.1°F-9.4°C 55% 17.0 mph SSW27.4 kmh SSW 62.0 mph99.8 kmh 29.68 in1005.1 mb 0.00 in0.0 mm 0.00 in/hr0.0 mm/hr 0.00 in0.0 mm
01:15 AM 29.3°F-1.5°C 15.5°F-9.2°C 56% 39.0 mph WSW62.8 kmh WSW 62.0 mph99.8 kmh 29.66 in1004.4 mb 0.00 in0.0 mm 0.00 in/hr0.0 mm/hr 0.00 in0.0 mm
01:20 AM 29.1°F-1.6°C 15.7°F-9.1°C 57% 37.0 mph SW59.5 kmh SW 60.0 mph96.6 kmh 29.66 in1004.4 mb 0.00 in0.0 mm 0.00 in/hr0.0 mm/hr 0.00 in0.0 mm
01:25 AM 29.4°F-1.4°C 15.6°F-9.1°C 56% 43.0 mph W69.2 kmh W 58.0 mph93.3 kmh 29.66 in1004.4 mb 0.00 in0.0 mm 0.00 in/hr0.0 mm/hr 0.00 in0.0 mm
01:30 AM 29.4°F-1.4°C 15.6°F-9.1°C 56% 20.0 mph WNW32.2 kmh WNW 67.0 mph107.8 kmh 29.67 in1004.7 mb 0.00 in0.0 mm 0.00 in/hr0.0 mm/hr 0.00 in0.0 mm
01:35 AM 29.7°F-1.3°C 15.5°F-9.2°C 55% 26.0 mph WNW41.8 kmh WNW 56.0 mph90.1 kmh 29.67 in1004.7 mb 0.00 in0.0 mm 0.00 in/hr0.0 mm/hr 0.00 in0.0 mm
01:40 AM 29.5°F-1.4°C 15.3°F-9.3°C 55% 9.0 mph WSW14.5 kmh WSW 55.0 mph88.5 kmh 29.67 in1004.7 mb 0.00 in0.0 mm 0.00 in/hr0.0 mm/hr 0.00 in0.0 mm
01:45 AM 29.5°F-1.4°C 17.3°F-8.2°C 60% 13.0 mph WSW20.9 kmh WSW 53.0 mph85.3 kmh 29.67 in1004.7 mb 0.00 in0.0 mm 0.00 in/hr0.0 mm/hr 0.00 in0.0 mm
01:50 AM 29.7°F-1.3°C 15.5°F-9.2°C 55% 22.0 mph WSW35.4 kmh WSW 62.0 mph99.8 kmh 29.67 in1004.7 mb 0.00 in0.0 mm 0.00 in/hr0.0 mm/hr 0.00 in0.0 mm
01:55 AM 29.7°F-1.3°C 15.5°F-9.2°C 55% 13.0 mph W20.9 kmh W 51.0 mph82.1 kmh 29.67 in1004.7 mb 0.00 in0.0 mm 0.00 in/hr0.0 mm/hr 0.00 in0.0 mm
02:00 AM 29.7°F-1.3°C 15.9°F-8.9°C 56% 51.0 mph SW82.1 kmh SW 54.0 mph86.9 kmh 29.66 in1004.4 mb 0.00 in0.0 mm 0.00 in/hr0.0 mm/hr 0.00 in0.0 mm
02:05 AM 29.8°F-1.2°C 16.0°F-8.9°C 56% 47.0 mph NW75.6 kmh NW 65.0 mph104.6 kmh 29.66 in1004.4 mb 0.00 in0.0 mm 0.00 in/hr0.0 mm/hr 0.00 in0.0 mm
02:10 AM 30.0°F-1.1°C 15.8°F-9.0°C 55% 11.0 mph W17.7 kmh W 54.0 mph86.9 kmh 29.66 in1004.4 mb 0.00 in0.0 mm 0.00 in/hr0.0 mm/hr 0.00 in0.0 mm
02:15 AM 30.1°F-1.1°C 16.3°F-8.7°C 56% 24.0 mph SW38.6 kmh SW 58.0 mph93.3 kmh 29.67 in1004.7 mb 0.00 in0.0 mm 0.00 in/hr0.0 mm/hr 0.00 in0.0 mm
02:20 AM 30.3°F-0.9°C 16.0°F-8.9°C 55% 46.0 mph SW74.0 kmh SW 65.0 mph104.6 kmh 29.67 in1004.7 mb 0.00 in0.0 mm 0.00 in/hr0.0 mm/hr 0.00 in0.0 mm
02:25 AM 30.3°F-0.9°C 16.0°F-8.9°C 55% 56.0 mph W90.1 kmh W 68.0 mph109.4 kmh 29.67 in1004.7 mb 0.00 in0.0 mm 0.00 in/hr0.0 mm/hr 0.00 in0.0 mm
02:30 AM 30.3°F-0.9°C 16.0°F-8.9°C 55% 59.0 mph NW95.0 kmh NW 72.0 mph115.9 kmh 29.64 in1003.7 mb 0.00 in0.0 mm 0.00 in/hr0.0 mm/hr 0.00 in0.0 mm
02:35 AM 30.1°F-1.1°C 15.9°F-8.9°C 55% 40.0 mph NW64.4 kmh NW 63.0 mph101.4 kmh 29.64 in1003.7 mb 0.00 in0.0 mm 0.00 in/hr0.0 mm/hr 0.00 in0.0 mm
02:40 AM 30.3°F-0.9°C 15.6°F-9.1°C 54% 20.0 mph W32.2 kmh W 60.0 mph96.6 kmh 29.64 in1003.7 mb 0.00 in0.0 mm 0.00 in/hr0.0 mm/hr 0.00 in0.0 mm
02:45 AM 30.4°F-0.9°C 15.7°F-9.1°C 54% 21.0 mph WSW33.8 kmh WSW 43.0 mph69.2 kmh 29.66 in1004.4 mb 0.00 in0.0 mm 0.00 in/hr0.0 mm/hr 0.00 in0.0 mm
02:50 AM 30.7°F-0.7°C 15.6°F-9.1°C 53% 30.0 mph SW48.3 kmh SW 56.0 mph90.1 kmh 29.66 in1004.4 mb 0.00 in0.0 mm 0.00 in/hr0.0 mm/hr 0.00 in0.0 mm
02:55 AM 30.7°F-0.7°C 15.6°F-9.1°C 53% 12.0 mph WSW19.3 kmh WSW 62.0 mph99.8 kmh 29.66 in1004.4 mb 0.00 in0.0 mm 0.00 in/hr0.0 mm/hr 0.00 in0.0 mm
03:00 AM 30.7°F-0.7°C 16.0°F-8.9°C 54% 24.0 mph W38.6 kmh W 61.0 mph98.2 kmh 29.67 in1004.7 mb 0.00 in0.0 mm 0.00 in/hr0.0 mm/hr 0.00 in0.0 mm
03:05 AM 30.7°F-0.7°C 16.0°F-8.9°C 54% 37.0 mph W59.5 kmh W 58.0 mph93.3 kmh 29.67 in1004.7 mb 0.00 in0.0 mm 0.00 in/hr0.0 mm/hr 0.00 in0.0 mm
03:10 AM 30.9°F-0.6°C 16.6°F-8.6°C 55% 35.0 mph WSW56.3 kmh WSW 66.0 mph106.2 kmh 29.67 in1004.7 mb 0.00 in0.0 mm 0.00 in/hr0.0 mm/hr 0.00 in0.0 mm
03:15 AM 30.7°F-0.7°C 16.8°F-8.4°C 56% 24.0 mph WNW38.6 kmh WNW 69.0 mph111.0 kmh 29.68 in1005.1 mb 0.00 in0.0 mm 0.00 in/hr0.0 mm/hr 0.00 in0.0 mm
03:20 AM 30.7°F-0.7°C 16.4°F-8.7°C 55% 34.0 mph WSW54.7 kmh WSW 64.0 mph103.0 kmh 29.68 in1005.1 mb 0.00 in0.0 mm 0.00 in/hr0.0 mm/hr 0.00 in0.0 mm
03:25 AM 30.7°F-0.7°C 16.4°F-8.7°C 55% 32.0 mph WNW51.5 kmh WNW 75.0 mph120.7 kmh 29.68 in1005.1 mb 0.00 in0.0 mm 0.00 in/hr0.0 mm/hr 0.00 in0.0 mm
03:30 AM 30.6°F-0.8°C 16.7°F-8.5°C 56% 27.0 mph WSW43.5 kmh WSW 57.0 mph91.7 kmh 29.66 in1004.4 mb 0.00 in0.0 mm 0.00 in/hr0.0 mm/hr 0.00 in0.0 mm
03:35 AM 30.6°F-0.8°C 17.1°F-8.3°C 57% 29.0 mph W46.7 kmh W 57.0 mph91.7 kmh 29.66 in1004.4 mb 0.00 in0.0 mm 0.00 in/hr0.0 mm/hr 0.00 in0.0 mm
03:40 AM 30.6°F-0.8°C 16.7°F-8.5°C 56% 36.0 mph WSW57.9 kmh WSW 56.0 mph90.1 kmh 29.66 in1004.4 mb 0.00 in0.0 mm 0.00 in/hr0.0 mm/hr 0.00 in0.0 mm
03:45 AM 30.9°F-0.6°C 17.0°F-8.3°C 56% 42.0 mph NW67.6 kmh NW 66.0 mph106.2 kmh 29.64 in1003.7 mb 0.00 in0.0 mm 0.00 in/hr0.0 mm/hr 0.00 in0.0 mm
03:50 AM 30.9°F-0.6°C 17.0°F-8.3°C 56% 19.0 mph W30.6 kmh W 57.0 mph91.7 kmh 29.64 in1003.7 mb 0.00 in0.0 mm 0.00 in/hr0.0 mm/hr 0.00 in0.0 mm
03:55 AM 30.7°F-0.7°C 16.8°F-8.4°C 56% 19.0 mph W30.6 kmh W 56.0 mph90.1 kmh 29.64 in1003.7 mb 0.00 in0.0 mm 0.00 in/hr0.0 mm/hr 0.00 in0.0 mm
04:00 AM 30.7°F-0.7°C 16.8°F-8.4°C 56% 28.0 mph W45.1 kmh W 55.0 mph88.5 kmh 29.63 in1003.4 mb 0.00 in0.0 mm 0.00 in/hr0.0 mm/hr 0.00 in0.0 mm
04:05 AM 30.7°F-0.7°C 16.8°F-8.4°C 56% 33.0 mph W53.1 kmh W 53.0 mph85.3 kmh 29.63 in1003.4 mb 0.00 in0.0 mm 0.00 in/hr0.0 mm/hr 0.00 in0.0 mm
04:10 AM 30.9°F-0.6°C 17.0°F-8.3°C 56% 56.0 mph SW90.1 kmh SW 64.0 mph103.0 kmh 29.63 in1003.4 mb 0.00 in0.0 mm 0.00 in/hr0.0 mm/hr 0.00 in0.0 mm
04:15 AM 30.9°F-0.6°C 17.0°F-8.3°C 56% 42.0 mph SW67.6 kmh SW 55.0 mph88.5 kmh 29.62 in1003.0 mb 0.00 in0.0 mm 0.00 in/hr0.0 mm/hr 0.00 in0.0 mm
04:20 AM 31.0°F-0.6°C 17.1°F-8.3°C 56% 50.0 mph NW80.5 kmh NW 61.0 mph98.2 kmh 29.62 in1003.0 mb 0.00 in0.0 mm 0.00 in/hr0.0 mm/hr 0.00 in0.0 mm
04:25 AM 31.0°F-0.6°C 17.1°F-8.3°C 56% 31.0 mph WNW49.9 kmh WNW 57.0 mph91.7 kmh 29.62 in1003.0 mb 0.00 in0.0 mm 0.00 in/hr0.0 mm/hr 0.00 in0.0 mm
04:30 AM 31.0°F-0.6°C 17.5°F-8.1°C 57% 38.0 mph W61.2 kmh W 52.0 mph83.7 kmh 29.64 in1003.7 mb 0.00 in0.0 mm 0.00 in/hr0.0 mm/hr 0.00 in0.0 mm
04:35 AM 31.0°F-0.6°C 17.1°F-8.3°C 56% 24.0 mph WSW38.6 kmh WSW 61.0 mph98.2 kmh 29.64 in1003.7 mb 0.00 in0.0 mm 0.00 in/hr0.0 mm/hr 0.00 in0.0 mm
04:40 AM 30.9°F-0.6°C 17.4°F-8.1°C 57% 30.0 mph WSW48.3 kmh WSW 58.0 mph93.3 kmh 29.64 in1003.7 mb 0.00 in0.0 mm 0.00 in/hr0.0 mm/hr 0.00 in0.0 mm
04:45 AM 30.9°F-0.6°C 17.4°F-8.1°C 57% 31.0 mph WNW49.9 kmh WNW 61.0 mph98.2 kmh 29.64 in1003.7 mb 0.00 in0.0 mm 0.00 in/hr0.0 mm/hr 0.00 in0.0 mm
04:50 AM 30.7°F-0.7°C 16.0°F-8.9°C 54% 24.0 mph WSW38.6 kmh WSW 50.0 mph80.5 kmh 29.64 in1003.7 mb 0.00 in0.0 mm 0.00 in/hr0.0 mm/hr 0.00 in0.0 mm
04:55 AM 30.7°F-0.7°C 17.6°F-8.0°C 58% 17.0 mph W27.4 kmh W 54.0 mph86.9 kmh 29.64 in1003.7 mb 0.00 in0.0 mm 0.00 in/hr0.0 mm/hr 0.00 in0.0 mm
05:00 AM 30.4°F-0.9°C 17.8°F-7.9°C 59% 51.0 mph WSW82.1 kmh WSW 58.0 mph93.3 kmh 29.67 in1004.7 mb 0.00 in0.0 mm 0.00 in/hr0.0 mm/hr 0.00 in0.0 mm
05:05 AM 30.1°F-1.1°C 17.9°F-7.8°C 60% 23.0 mph WSW37.0 kmh WSW 67.0 mph107.8 kmh 29.67 in1004.7 mb 0.00 in0.0 mm 0.00 in/hr0.0 mm/hr 0.00 in0.0 mm
05:10 AM 30.3°F-0.9°C 17.7°F-7.9°C 59% 32.0 mph SW51.5 kmh SW 58.0 mph93.3 kmh 29.67 in1004.7 mb 0.00 in0.0 mm 0.00 in/hr0.0 mm/hr 0.00 in0.0 mm
05:15 AM 30.4°F-0.9°C 17.4°F-8.1°C 58% 40.0 mph W64.4 kmh W 62.0 mph99.8 kmh 29.68 in1005.1 mb 0.00 in0.0 mm 0.00 in/hr0.0 mm/hr 0.00 in0.0 mm
05:20 AM 30.7°F-0.7°C 17.2°F-8.2°C 57% 51.0 mph SW82.1 kmh SW 69.0 mph111.0 kmh 29.68 in1005.1 mb 0.00 in0.0 mm 0.00 in/hr0.0 mm/hr 0.00 in0.0 mm
05:25 AM 30.9°F-0.6°C 17.4°F-8.1°C 57% 46.0 mph SW74.0 kmh SW 60.0 mph96.6 kmh 29.68 in1005.1 mb 0.00 in0.0 mm 0.00 in/hr0.0 mm/hr 0.00 in0.0 mm
05:30 AM 31.0°F-0.6°C 17.1°F-8.3°C 56% 32.0 mph SW51.5 kmh SW 62.0 mph99.8 kmh 29.66 in1004.4 mb 0.00 in0.0 mm 0.00 in/hr0.0 mm/hr 0.00 in0.0 mm
05:35 AM 31.2°F-0.4°C 16.9°F-8.4°C 55% 23.0 mph NW37.0 kmh NW 68.0 mph109.4 kmh 29.66 in1004.4 mb 0.00 in0.0 mm 0.00 in/hr0.0 mm/hr 0.00 in0.0 mm
05:40 AM 31.3°F-0.4°C 16.6°F-8.6°C 54% 51.0 mph WSW82.1 kmh WSW 56.0 mph90.1 kmh 29.66 in1004.4 mb 0.00 in0.0 mm 0.00 in/hr0.0 mm/hr 0.00 in0.0 mm
05:45 AM 31.5°F-0.3°C 17.2°F-8.2°C 55% 49.0 mph SW78.9 kmh SW 62.0 mph99.8 kmh 29.64 in1003.7 mb 0.00 in0.0 mm 0.00 in/hr0.0 mm/hr 0.00 in0.0 mm
05:50 AM 31.5°F-0.3°C 16.7°F-8.5°C 54% 25.0 mph NW40.2 kmh NW 60.0 mph96.6 kmh 29.64 in1003.7 mb 0.00 in0.0 mm 0.00 in/hr0.0 mm/hr 0.00 in0.0 mm
05:55 AM 31.3°F-0.4°C 16.6°F-8.6°C 54% 36.0 mph W57.9 kmh W 59.0 mph95.0 kmh 29.64 in1003.7 mb 0.00 in0.0 mm 0.00 in/hr0.0 mm/hr 0.00 in0.0 mm
06:00 AM 31.5°F-0.3°C 16.7°F-8.5°C 54% 35.0 mph W56.3 kmh W 50.0 mph80.5 kmh 29.68 in1005.1 mb 0.00 in0.0 mm 0.00 in/hr0.0 mm/hr 0.00 in0.0 mm
06:05 AM 31.5°F-0.3°C 16.7°F-8.5°C 54% 21.0 mph WSW33.8 kmh WSW 45.0 mph72.4 kmh 29.68 in1005.1 mb 0.00 in0.0 mm 0.00 in/hr0.0 mm/hr 0.00 in0.0 mm
06:10 AM 31.6°F-0.2°C 16.8°F-8.4°C 54% 24.0 mph W38.6 kmh W 51.0 mph82.1 kmh 29.68 in1005.1 mb 0.00 in0.0 mm 0.00 in/hr0.0 mm/hr 0.00 in0.0 mm
06:15 AM 31.6°F-0.2°C 16.8°F-8.4°C 54% 21.0 mph WSW33.8 kmh WSW 42.0 mph67.6 kmh 29.74 in1007.1 mb 0.00 in0.0 mm 0.00 in/hr0.0 mm/hr 0.00 in0.0 mm
06:20 AM 31.5°F-0.3°C 17.2°F-8.2°C 55% 39.0 mph NW62.8 kmh NW 47.0 mph75.6 kmh 29.74 in1007.1 mb 0.00 in0.0 mm 0.00 in/hr0.0 mm/hr 0.00 in0.0 mm
06:25 AM 31.5°F-0.3°C 17.2°F-8.2°C 55% 14.0 mph WNW22.5 kmh WNW 54.0 mph86.9 kmh 29.74 in1007.1 mb 0.00 in0.0 mm 0.00 in/hr0.0 mm/hr 0.00 in0.0 mm
06:30 AM 31.3°F-0.4°C 17.0°F-8.3°C 55% 7.0 mph WSW11.3 kmh WSW 51.0 mph82.1 kmh 29.71 in1006.1 mb 0.00 in0.0 mm 0.00 in/hr0.0 mm/hr 0.00 in0.0 mm
06:35 AM 31.2°F-0.4°C 17.7°F-7.9°C 57% 39.0 mph 62.8 kmh 48.0 mph77.2 kmh 29.71 in1006.1 mb 0.00 in0.0 mm 0.00 in/hr0.0 mm/hr 0.00 in0.0 mm
06:40 AM 31.0°F-0.6°C 17.5°F-8.1°C 57% 31.0 mph WSW49.9 kmh WSW 64.0 mph103.0 kmh 29.71 in1006.1 mb 0.00 in0.0 mm 0.00 in/hr0.0 mm/hr 0.00 in0.0 mm
06:45 AM 30.9°F-0.6°C 17.4°F-8.1°C 57% 10.0 mph W16.1 kmh W 50.0 mph80.5 kmh 29.67 in1004.7 mb 0.00 in0.0 mm 0.00 in/hr0.0 mm/hr 0.00 in0.0 mm
06:50 AM 30.9°F-0.6°C 17.0°F-8.3°C 56% 30.0 mph SW48.3 kmh SW 55.0 mph88.5 kmh 29.67 in1004.7 mb 0.00 in0.0 mm 0.00 in/hr0.0 mm/hr 0.00 in0.0 mm
06:55 AM 31.0°F-0.6°C 16.7°F-8.5°C 55% 54.0 mph WSW86.9 kmh WSW 66.0 mph106.2 kmh 29.67 in1004.7 mb 0.00 in0.0 mm 0.00 in/hr0.0 mm/hr 0.00 in0.0 mm
07:00 AM 31.0°F-0.6°C 16.7°F-8.5°C 55% 27.0 mph WSW43.5 kmh WSW 55.0 mph88.5 kmh 29.63 in1003.4 mb 0.00 in0.0 mm 0.00 in/hr0.0 mm/hr 0.00 in0.0 mm
07:05 AM 31.3°F-0.4°C 17.0°F-8.3°C 55% 13.0 mph WSW20.9 kmh WSW 73.0 mph117.5 kmh 29.63 in1003.4 mb 0.00 in0.0 mm 0.00 in/hr0.0 mm/hr 0.00 in0.0 mm
07:10 AM 31.0°F-0.6°C 16.7°F-8.5°C 55% 14.0 mph W22.5 kmh W 54.0 mph86.9 kmh 29.63 in1003.4 mb 0.00 in0.0 mm 0.00 in/hr0.0 mm/hr 0.00 in0.0 mm
07:15 AM 31.2°F-0.4°C 16.9°F-8.4°C 55% 33.0 mph WNW53.1 kmh WNW 60.0 mph96.6 kmh 29.64 in1003.7 mb 0.00 in0.0 mm 0.00 in/hr0.0 mm/hr 0.00 in0.0 mm
07:25 AM 30.9°F-0.6°C 17.4°F-8.1°C 57% 11.0 mph WSW17.7 kmh WSW 51.0 mph82.1 kmh 29.64 in1003.7 mb 0.00 in0.0 mm 0.00 in/hr0.0 mm/hr 0.00 in0.0 mm
07:30 AM 30.4°F-0.9°C 17.8°F-7.9°C 59% 12.0 mph W19.3 kmh W 44.0 mph70.8 kmh 29.63 in1003.4 mb 0.00 in0.0 mm 0.00 in/hr0.0 mm/hr 0.00 in0.0 mm
07:35 AM 30.6°F-0.8°C 17.6°F-8.0°C 58% 33.0 mph WSW53.1 kmh WSW 54.0 mph86.9 kmh 29.63 in1003.4 mb 0.00 in0.0 mm 0.00 in/hr0.0 mm/hr 0.00 in0.0 mm
07:40 AM 30.7°F-0.7°C 17.6°F-8.0°C 58% 21.0 mph WNW33.8 kmh WNW 58.0 mph93.3 kmh 29.63 in1003.4 mb 0.00 in0.0 mm 0.00 in/hr0.0 mm/hr 0.00 in0.0 mm
07:45 AM 30.9°F-0.6°C 17.0°F-8.3°C 56% 12.0 mph W19.3 kmh W 56.0 mph90.1 kmh 29.66 in1004.4 mb 0.00 in0.0 mm 0.00 in/hr0.0 mm/hr 0.00 in0.0 mm
07:50 AM 30.9°F-0.6°C 17.4°F-8.1°C 57% 12.0 mph SW19.3 kmh SW 47.0 mph75.6 kmh 29.66 in1004.4 mb 0.00 in0.0 mm 0.00 in/hr0.0 mm/hr 0.00 in0.0 mm
07:55 AM 30.9°F-0.6°C 17.4°F-8.1°C 57% 28.0 mph WSW45.1 kmh WSW 56.0 mph90.1 kmh 29.66 in1004.4 mb 0.00 in0.0 mm 0.00 in/hr0.0 mm/hr 0.00 in0.0 mm
08:00 AM 31.0°F-0.6°C 17.5°F-8.1°C 57% 19.0 mph W30.6 kmh W 50.0 mph80.5 kmh 29.66 in1004.4 mb 0.00 in0.0 mm 0.00 in/hr0.0 mm/hr 0.00 in0.0 mm
08:05 AM 31.3°F-0.4°C 17.4°F-8.1°C 56% 46.0 mph WNW74.0 kmh WNW 60.0 mph96.6 kmh 29.66 in1004.4 mb 0.00 in0.0 mm 0.00 in/hr0.0 mm/hr 0.00 in0.0 mm
08:10 AM 31.8°F-0.1°C 17.4°F-8.1°C 55% 18.0 mph WNW29.0 kmh WNW 51.0 mph82.1 kmh 29.66 in1004.4 mb 0.00 in0.0 mm 0.00 in/hr0.0 mm/hr 0.00 in0.0 mm
08:15 AM 31.8°F-0.1°C 17.4°F-8.1°C 55% 12.0 mph WSW19.3 kmh WSW 45.0 mph72.4 kmh 29.66 in1004.4 mb 0.00 in0.0 mm 0.00 in/hr0.0 mm/hr 0.00 in0.0 mm
08:20 AM 31.8°F-0.1°C 17.4°F-8.1°C 55% 55.0 mph WSW88.5 kmh WSW 60.0 mph96.6 kmh 29.66 in1004.4 mb 0.00 in0.0 mm 0.00 in/hr0.0 mm/hr 0.00 in0.0 mm
08:25 AM 32.2°F0.1°C 17.0°F-8.3°C 53% 25.0 mph W40.2 kmh W 67.0 mph107.8 kmh 29.66 in1004.4 mb 0.00 in0.0 mm 0.00 in/hr0.0 mm/hr 0.00 in0.0 mm
08:30 AM 32.2°F0.1°C 17.0°F-8.3°C 53% 26.0 mph WSW41.8 kmh WSW 46.0 mph74.0 kmh 29.66 in1004.4 mb 0.00 in0.0 mm 0.00 in/hr0.0 mm/hr 0.00 in0.0 mm
08:35 AM 32.7°F0.4°C 17.0°F-8.3°C 52% 31.0 mph WSW49.9 kmh WSW 52.0 mph83.7 kmh 29.66 in1004.4 mb 0.00 in0.0 mm 0.00 in/hr0.0 mm/hr 0.00 in0.0 mm
08:40 AM 32.9°F0.5°C 17.2°F-8.2°C 52% 8.0 mph NW12.9 kmh NW 51.0 mph82.1 kmh 29.66 in1004.4 mb 0.00 in0.0 mm 0.00 in/hr0.0 mm/hr 0.00 in0.0 mm
08:45 AM 33.2°F0.7°C 16.5°F-8.6°C 50% 25.0 mph WSW40.2 kmh WSW 56.0 mph90.1 kmh 29.67 in1004.7 mb 0.00 in0.0 mm 0.00 in/hr0.0 mm/hr 0.00 in0.0 mm
09:00 AM 33.4°F0.8°C 16.3°F-8.7°C 49% 30.0 mph WSW48.3 kmh WSW 53.0 mph85.3 kmh 29.66 in1004.4 mb 0.00 in0.0 mm 0.00 in/hr0.0 mm/hr 0.00 in0.0 mm
09:05 AM 33.2°F0.7°C 17.0°F-8.3°C 51% 25.0 mph W40.2 kmh W 48.0 mph77.2 kmh 29.67 in1004.7 mb 0.00 in0.0 mm 0.00 in/hr0.0 mm/hr 0.00 in0.0 mm
09:10 AM 34.3°F1.3°C 17.1°F-8.3°C 49% 14.0 mph SW22.5 kmh SW 46.0 mph74.0 kmh 29.66 in1004.4 mb 0.00 in0.0 mm 0.00 in/hr0.0 mm/hr 0.00 in0.0 mm
09:15 AM 35.0°F1.7°C 17.3°F-8.2°C 48% 26.0 mph W41.8 kmh W 43.0 mph69.2 kmh 29.66 in1004.4 mb 0.00 in0.0 mm 0.00 in/hr0.0 mm/hr 0.00 in0.0 mm
09:20 AM 35.2°F1.8°C 17.0°F-8.3°C 47% 38.0 mph SW61.2 kmh SW 53.0 mph85.3 kmh 29.66 in1004.4 mb 0.00 in0.0 mm 0.00 in/hr0.0 mm/hr 0.00 in0.0 mm
09:25 AM 34.9°F1.6°C 17.2°F-8.2°C 48% 35.0 mph SW56.3 kmh SW 50.0 mph80.5 kmh 29.66 in1004.4 mb 0.00 in0.0 mm 0.00 in/hr0.0 mm/hr 0.00 in0.0 mm
09:30 AM 34.4°F1.3°C 16.7°F-8.5°C 48% 26.0 mph WSW41.8 kmh WSW 40.0 mph64.4 kmh 29.66 in1004.4 mb 0.00 in0.0 mm 0.00 in/hr0.0 mm/hr 0.00 in0.0 mm
09:35 AM 34.7°F1.5°C 17.0°F-8.3°C 48% 45.0 mph WSW72.4 kmh WSW 47.0 mph75.6 kmh 29.66 in1004.4 mb 0.00 in0.0 mm 0.00 in/hr0.0 mm/hr 0.00 in0.0 mm
09:40 AM 34.7°F1.5°C 17.5°F-8.1°C 49% 6.0 mph S9.7 kmh S 46.0 mph74.0 kmh 29.66 in1004.4 mb 0.00 in0.0 mm 0.00 in/hr0.0 mm/hr 0.00 in0.0 mm
09:45 AM 34.7°F1.5°C 17.5°F-8.1°C 49% 20.0 mph SW32.2 kmh SW 57.0 mph91.7 kmh 29.65 in1004.1 mb 0.00 in0.0 mm 0.00 in/hr0.0 mm/hr 0.00 in0.0 mm
09:50 AM 34.9°F1.6°C 16.7°F-8.5°C 47% 13.0 mph WSW20.9 kmh WSW 54.0 mph86.9 kmh 29.65 in1004.1 mb 0.00 in0.0 mm 0.00 in/hr0.0 mm/hr 0.00 in0.0 mm
09:55 AM 34.6°F1.4°C 16.4°F-8.7°C 47% 24.0 mph W38.6 kmh W 54.0 mph86.9 kmh 29.65 in1004.1 mb 0.00 in0.0 mm 0.00 in/hr0.0 mm/hr 0.00 in0.0 mm
10:00 AM 34.4°F1.3°C 17.2°F-8.2°C 49% 53.0 mph WSW85.3 kmh WSW 53.0 mph85.3 kmh 29.64 in1003.7 mb 0.00 in0.0 mm 0.00 in/hr0.0 mm/hr 0.00 in0.0 mm
10:05 AM 34.3°F1.3°C 16.6°F-8.6°C 48% 42.0 mph W67.6 kmh W 65.0 mph104.6 kmh 29.64 in1003.7 mb 0.00 in0.0 mm 0.00 in/hr0.0 mm/hr 0.00 in0.0 mm
10:10 AM 34.0°F1.1°C 17.3°F-8.2°C 50% 34.0 mph WSW54.7 kmh WSW 59.0 mph95.0 kmh 29.64 in1003.7 mb 0.00 in0.0 mm 0.00 in/hr0.0 mm/hr 0.00 in0.0 mm
10:15 AM 34.1°F1.2°C 16.9°F-8.4°C 49% 24.0 mph WSW38.6 kmh WSW 51.0 mph82.1 kmh 29.65 in1004.1 mb 0.00 in0.0 mm 0.00 in/hr0.0 mm/hr 0.00 in0.0 mm
10:20 AM 34.1°F1.2°C 17.4°F-8.1°C 50% 21.0 mph WSW33.8 kmh WSW 56.0 mph90.1 kmh 29.65 in1004.1 mb 0.00 in0.0 mm 0.00 in/hr0.0 mm/hr 0.00 in0.0 mm
10:25 AM 34.0°F1.1°C 17.7°F-7.9°C 51% 34.0 mph SW54.7 kmh SW 53.0 mph85.3 kmh 29.65 in1004.1 mb 0.00 in0.0 mm 0.00 in/hr0.0 mm/hr 0.00 in0.0 mm
10:30 AM 33.8°F1.0°C 17.6°F-8.0°C 51% 29.0 mph W46.7 kmh W 60.0 mph96.6 kmh 29.67 in1004.7 mb 0.00 in0.0 mm 0.00 in/hr0.0 mm/hr 0.00 in0.0 mm
10:35 AM 33.5°F0.8°C 17.3°F-8.2°C 51% 27.0 mph WSW43.5 kmh WSW 54.0 mph86.9 kmh 29.67 in1004.7 mb 0.00 in0.0 mm 0.00 in/hr0.0 mm/hr 0.00 in0.0 mm
10:40 AM 33.5°F0.8°C 17.7°F-7.9°C 52% 46.0 mph WSW74.0 kmh WSW 50.0 mph80.5 kmh 29.67 in1004.7 mb 0.00 in0.0 mm 0.00 in/hr0.0 mm/hr 0.00 in0.0 mm
10:45 AM 33.7°F0.9°C 17.5°F-8.1°C 51% 45.0 mph WSW72.4 kmh WSW 55.0 mph88.5 kmh 29.67 in1004.7 mb 0.00 in0.0 mm 0.00 in/hr0.0 mm/hr 0.00 in0.0 mm
10:50 AM 34.0°F1.1°C 16.8°F-8.4°C 49% 44.0 mph SW70.8 kmh SW 58.0 mph93.3 kmh 29.67 in1004.7 mb 0.00 in0.0 mm 0.00 in/hr0.0 mm/hr 0.00 in0.0 mm
10:55 AM 34.1°F1.2°C 17.4°F-8.1°C 50% 33.0 mph SW53.1 kmh SW 56.0 mph90.1 kmh 29.67 in1004.7 mb 0.00 in0.0 mm 0.00 in/hr0.0 mm/hr 0.00 in0.0 mm
11:00 AM 34.1°F1.2°C 17.8°F-7.9°C 51% 39.0 mph WSW62.8 kmh WSW 51.0 mph82.1 kmh 29.67 in1004.7 mb 0.00 in0.0 mm 0.00 in/hr0.0 mm/hr 0.00 in0.0 mm
11:05 AM 34.4°F1.3°C 17.7°F-7.9°C 50% 37.0 mph WSW59.5 kmh WSW 48.0 mph77.2 kmh 29.67 in1004.7 mb 0.00 in0.0 mm 0.00 in/hr0.0 mm/hr 0.00 in0.0 mm
11:10 AM 34.7°F1.5°C 17.9°F-7.8°C 50% 46.0 mph SW74.0 kmh SW 54.0 mph86.9 kmh 29.67 in1004.7 mb 0.00 in0.0 mm 0.00 in/hr0.0 mm/hr 0.00 in0.0 mm
11:15 AM 35.5°F1.9°C 17.2°F-8.2°C 47% 37.0 mph WSW59.5 kmh WSW 57.0 mph91.7 kmh 29.70 in1005.8 mb 0.00 in0.0 mm 0.00 in/hr0.0 mm/hr 0.00 in0.0 mm
11:20 AM 35.3°F1.8°C 17.1°F-8.3°C 47% 29.0 mph W46.7 kmh W 54.0 mph86.9 kmh 29.70 in1005.8 mb 0.00 in0.0 mm 0.00 in/hr0.0 mm/hr 0.00 in0.0 mm
11:25 AM 35.8°F2.1°C 17.0°F-8.3°C 46% 30.0 mph SW48.3 kmh SW 47.0 mph75.6 kmh 29.70 in1005.8 mb 0.00 in0.0 mm 0.00 in/hr0.0 mm/hr 0.00 in0.0 mm
11:30 AM 35.8°F2.1°C 16.5°F-8.6°C 45% 28.0 mph WSW45.1 kmh WSW 49.0 mph78.9 kmh 29.73 in1006.8 mb 0.00 in0.0 mm 0.00 in/hr0.0 mm/hr 0.00 in0.0 mm
11:35 AM 35.9°F2.2°C 16.6°F-8.6°C 45% 16.0 mph SW25.7 kmh SW 43.0 mph69.2 kmh 29.73 in1006.8 mb 0.00 in0.0 mm 0.00 in/hr0.0 mm/hr 0.00 in0.0 mm
11:40 AM 36.5°F2.5°C 17.2°F-8.2°C 45% 27.0 mph WSW43.5 kmh WSW 35.0 mph56.3 kmh 29.73 in1006.8 mb 0.00 in0.0 mm 0.00 in/hr0.0 mm/hr 0.00 in0.0 mm
11:45 AM 36.9°F2.7°C 16.5°F-8.6°C 43% 14.0 mph WSW22.5 kmh WSW 39.0 mph62.8 kmh 29.74 in1007.1 mb 0.00 in0.0 mm 0.00 in/hr0.0 mm/hr 0.00 in0.0 mm
11:50 AM 36.9°F2.7°C 17.0°F-8.3°C 44% 7.0 mph NW11.3 kmh NW 39.0 mph62.8 kmh 29.74 in1007.1 mb 0.00 in0.0 mm 0.00 in/hr0.0 mm/hr 0.00 in0.0 mm
11:55 AM 37.0°F2.8°C 16.6°F-8.6°C 43% 12.0 mph W19.3 kmh W 36.0 mph57.9 kmh 29.74 in1007.1 mb 0.00 in0.0 mm 0.00 in/hr0.0 mm/hr 0.00 in0.0 mm
12:00 PM 36.9°F2.7°C 16.5°F-8.6°C 43% 23.0 mph WSW37.0 kmh WSW 39.0 mph62.8 kmh 29.73 in1006.8 mb 0.00 in0.0 mm 0.00 in/hr0.0 mm/hr 0.00 in0.0 mm
12:05 PM 36.8°F2.7°C 16.4°F-8.7°C 43% 32.0 mph SW51.5 kmh SW 37.0 mph59.5 kmh 29.73 in1006.8 mb 0.00 in0.0 mm 0.00 in/hr0.0 mm/hr 0.00 in0.0 mm
12:10 PM 36.9°F2.7°C 15.9°F-8.9°C 42% 11.0 mph WSW17.7 kmh WSW 35.0 mph56.3 kmh 29.73 in1006.8 mb 0.00 in0.0 mm 0.00 in/hr0.0 mm/hr 0.00 in0.0 mm
12:15 PM 36.9°F2.7°C 17.0°F-8.3°C 44% 9.0 mph WSW14.5 kmh WSW 26.0 mph41.8 kmh 29.74 in1007.1 mb 0.00 in0.0 mm 0.00 in/hr0.0 mm/hr 0.00 in0.0 mm
12:20 PM 37.0°F2.8°C 17.1°F-8.3°C 44% 17.0 mph NW27.4 kmh NW 30.0 mph48.3 kmh 29.74 in1007.1 mb 0.00 in0.0 mm 0.00 in/hr0.0 mm/hr 0.00 in0.0 mm
12:25 PM 37.5°F3.1°C 16.5°F-8.6°C 42% 16.0 mph WSW25.7 kmh WSW 20.0 mph32.2 kmh 29.74 in1007.1 mb 0.00 in0.0 mm 0.00 in/hr0.0 mm/hr 0.00 in0.0 mm
12:30 PM 37.3°F2.9°C 16.3°F-8.7°C 42% 8.0 mph WNW12.9 kmh WNW 37.0 mph59.5 kmh 29.70 in1005.8 mb 0.00 in0.0 mm 0.00 in/hr0.0 mm/hr 0.00 in0.0 mm
12:35 PM 37.2°F2.9°C 16.7°F-8.5°C 43% 16.0 mph WSW25.7 kmh WSW 27.0 mph43.5 kmh 29.70 in1005.8 mb 0.00 in0.0 mm 0.00 in/hr0.0 mm/hr 0.00 in0.0 mm
12:40 PM 37.5°F3.1°C 17.0°F-8.3°C 43% 11.0 mph NW17.7 kmh NW 23.0 mph37.0 kmh 29.70 in1005.8 mb 0.00 in0.0 mm 0.00 in/hr0.0 mm/hr 0.00 in0.0 mm
12:45 PM 38.0°F3.3°C 15.8°F-9.0°C 40% 10.0 mph W16.1 kmh W 22.0 mph35.4 kmh 29.66 in1004.4 mb 0.00 in0.0 mm 0.00 in/hr0.0 mm/hr 0.00 in0.0 mm
12:50 PM 38.3°F3.5°C 16.1°F-8.8°C 40% 19.0 mph WSW30.6 kmh WSW 29.0 mph46.7 kmh 29.66 in1004.4 mb 0.00 in0.0 mm 0.00 in/hr0.0 mm/hr 0.00 in0.0 mm
12:55 PM 38.5°F3.6°C 16.8°F-8.4°C 41% 18.0 mph SW29.0 kmh SW 27.0 mph43.5 kmh 29.66 in1004.4 mb 0.00 in0.0 mm 0.00 in/hr0.0 mm/hr 0.00 in0.0 mm
01:00 PM 39.2°F4.0°C 15.7°F-9.1°C 38% 10.0 mph WNW16.1 kmh WNW 30.0 mph48.3 kmh 29.65 in1004.1 mb 0.00 in0.0 mm 0.00 in/hr0.0 mm/hr 0.00 in0.0 mm
01:05 PM 38.3°F3.5°C 15.5°F-9.2°C 39% 35.0 mph WSW56.3 kmh WSW 35.0 mph56.3 kmh 29.65 in1004.1 mb 0.00 in0.0 mm 0.00 in/hr0.0 mm/hr 0.00 in0.0 mm
01:10 PM 38.5°F3.6°C 16.2°F-8.8°C 40% 26.0 mph W41.8 kmh W 36.0 mph57.9 kmh 29.65 in1004.1 mb 0.00 in0.0 mm 0.00 in/hr0.0 mm/hr 0.00 in0.0 mm
01:15 PM 38.8°F3.8°C 15.9°F-8.9°C 39% 18.0 mph NW29.0 kmh NW 30.0 mph48.3 kmh 29.64 in1003.7 mb 0.00 in0.0 mm 0.00 in/hr0.0 mm/hr 0.00 in0.0 mm
01:20 PM 39.1°F3.9°C 15.6°F-9.1°C 38% 24.0 mph SSW38.6 kmh SSW 30.0 mph48.3 kmh 29.64 in1003.7 mb 0.00 in0.0 mm 0.00 in/hr0.0 mm/hr 0.00 in0.0 mm
01:25 PM 39.5°F4.2°C 16.0°F-8.9°C 38% 11.0 mph WNW17.7 kmh WNW 32.0 mph51.5 kmh 29.64 in1003.7 mb 0.00 in0.0 mm 0.00 in/hr0.0 mm/hr 0.00 in0.0 mm
01:30 PM 39.6°F4.2°C 16.1°F-8.8°C 38% 15.0 mph SW24.1 kmh SW 28.0 mph45.1 kmh 29.61 in1002.7 mb 0.00 in0.0 mm 0.00 in/hr0.0 mm/hr 0.00 in0.0 mm
01:35 PM 39.6°F4.2°C 14.8°F-9.6°C 36% 22.0 mph W35.4 kmh W 34.0 mph54.7 kmh 29.61 in1002.7 mb 0.00 in0.0 mm 0.00 in/hr0.0 mm/hr 0.00 in0.0 mm
01:40 PM 39.8°F4.3°C 15.6°F-9.1°C 37% 13.0 mph NW20.9 kmh NW 36.0 mph57.9 kmh 29.61 in1002.7 mb 0.00 in0.0 mm 0.00 in/hr0.0 mm/hr 0.00 in0.0 mm
01:45 PM 39.6°F4.2°C 15.4°F-9.2°C 37% 20.0 mph WNW32.2 kmh WNW 30.0 mph48.3 kmh 29.61 in1002.7 mb 0.00 in0.0 mm 0.00 in/hr0.0 mm/hr 0.00 in0.0 mm
01:50 PM 40.2°F4.6°C 15.4°F-9.2°C 36% 3.0 mph WNW4.8 kmh WNW 22.0 mph35.4 kmh 29.61 in1002.7 mb 0.00 in0.0 mm 0.00 in/hr0.0 mm/hr 0.00 in0.0 mm
01:55 PM 40.9°F4.9°C 14.7°F-9.6°C 34% 9.0 mph WNW14.5 kmh WNW 22.0 mph35.4 kmh 29.61 in1002.7 mb 0.00 in0.0 mm 0.00 in/hr0.0 mm/hr 0.00 in0.0 mm
02:00 PM 40.1°F4.5°C 15.9°F-8.9°C 37% 9.0 mph W14.5 kmh W 31.0 mph49.9 kmh 29.59 in1002.0 mb 0.00 in0.0 mm 0.00 in/hr0.0 mm/hr 0.00 in0.0 mm
02:05 PM 39.3°F4.1°C 15.2°F-9.3°C 37% 8.0 mph SW12.9 kmh SW 32.0 mph51.5 kmh 29.59 in1002.0 mb 0.00 in0.0 mm 0.00 in/hr0.0 mm/hr 0.00 in0.0 mm
02:10 PM 39.3°F4.1°C 15.2°F-9.3°C 37% 21.0 mph W33.8 kmh W 33.0 mph53.1 kmh 29.59 in1002.0 mb 0.00 in0.0 mm 0.00 in/hr0.0 mm/hr 0.00 in0.0 mm
02:15 PM 39.8°F4.3°C 16.2°F-8.8°C 38% 17.0 mph W27.4 kmh W 25.0 mph40.2 kmh 29.57 in1001.4 mb 0.00 in0.0 mm 0.00 in/hr0.0 mm/hr 0.00 in0.0 mm
02:20 PM 40.3°F4.6°C 15.4°F-9.2°C 36% 7.0 mph W11.3 kmh W 23.0 mph37.0 kmh 29.57 in1001.4 mb 0.00 in0.0 mm 0.00 in/hr0.0 mm/hr 0.00 in0.0 mm
02:25 PM 40.9°F4.9°C 16.0°F-8.9°C 36% 7.0 mph NW11.3 kmh NW 36.0 mph57.9 kmh 29.57 in1001.4 mb 0.00 in0.0 mm 0.00 in/hr0.0 mm/hr 0.00 in0.0 mm
02:30 PM 40.3°F4.6°C 14.8°F-9.6°C 35% 24.0 mph NW38.6 kmh NW 51.0 mph82.1 kmh 29.53 in1000.0 mb 0.00 in0.0 mm 0.00 in/hr0.0 mm/hr 0.00 in0.0 mm
02:35 PM 40.2°F4.6°C 16.6°F-8.6°C 38% 19.0 mph WSW30.6 kmh WSW 39.0 mph62.8 kmh 29.53 in1000.0 mb 0.00 in0.0 mm 0.00 in/hr0.0 mm/hr 0.00 in0.0 mm
02:40 PM 40.2°F4.6°C 15.4°F-9.2°C 36% 11.0 mph SW17.7 kmh SW 44.0 mph70.8 kmh 29.53 in1000.0 mb 0.00 in0.0 mm 0.00 in/hr0.0 mm/hr 0.00 in0.0 mm
02:45 PM 39.8°F4.3°C 15.0°F-9.4°C 36% 35.0 mph NW56.3 kmh NW 58.0 mph93.3 kmh 29.49 in998.6 mb 0.00 in0.0 mm 0.00 in/hr0.0 mm/hr 0.00 in0.0 mm
02:50 PM 38.9°F3.8°C 16.0°F-8.9°C 39% 44.0 mph WSW70.8 kmh WSW 56.0 mph90.1 kmh 29.49 in998.6 mb 0.00 in0.0 mm 0.00 in/hr0.0 mm/hr 0.00 in0.0 mm
02:55 PM 38.0°F3.3°C 15.2°F-9.3°C 39% 21.0 mph W33.8 kmh W 55.0 mph88.5 kmh 29.49 in998.6 mb 0.00 in0.0 mm 0.00 in/hr0.0 mm/hr 0.00 in0.0 mm
03:00 PM 37.8°F3.2°C 15.0°F-9.4°C 39% 49.0 mph WNW78.9 kmh WNW 67.0 mph107.8 kmh 29.48 in998.3 mb 0.00 in0.0 mm 0.00 in/hr0.0 mm/hr 0.00 in0.0 mm
03:05 PM 37.6°F3.1°C 15.4°F-9.2°C 40% 55.0 mph WSW88.5 kmh WSW 59.0 mph95.0 kmh 29.48 in998.3 mb 0.00 in0.0 mm 0.00 in/hr0.0 mm/hr 0.00 in0.0 mm
03:10 PM 37.6°F3.1°C 15.4°F-9.2°C 40% 27.0 mph NW43.5 kmh NW 61.0 mph98.2 kmh 29.48 in998.3 mb 0.00 in0.0 mm 0.00 in/hr0.0 mm/hr 0.00 in0.0 mm
03:15 PM 37.5°F3.1°C 15.9°F-8.9°C 41% 34.0 mph W54.7 kmh W 57.0 mph91.7 kmh 29.49 in998.6 mb 0.00 in0.0 mm 0.00 in/hr0.0 mm/hr 0.00 in0.0 mm
03:20 PM 37.5°F3.1°C 15.9°F-8.9°C 41% 25.0 mph NW40.2 kmh NW 54.0 mph86.9 kmh 29.49 in998.6 mb 0.00 in0.0 mm 0.00 in/hr0.0 mm/hr 0.00 in0.0 mm
03:25 PM 37.5°F3.1°C 15.3°F-9.3°C 40% 30.0 mph WNW48.3 kmh WNW 52.0 mph83.7 kmh 29.49 in998.6 mb 0.00 in0.0 mm 0.00 in/hr0.0 mm/hr 0.00 in0.0 mm
03:30 PM 37.2°F2.9°C 16.2°F-8.8°C 42% 20.0 mph W32.2 kmh W 50.0 mph80.5 kmh 29.48 in998.3 mb 0.00 in0.0 mm 0.00 in/hr0.0 mm/hr 0.00 in0.0 mm
03:35 PM 37.0°F2.8°C 16.0°F-8.9°C 42% 22.0 mph WSW35.4 kmh WSW 62.0 mph99.8 kmh 29.48 in998.3 mb 0.00 in0.0 mm 0.00 in/hr0.0 mm/hr 0.00 in0.0 mm
03:40 PM 37.0°F2.8°C 16.0°F-8.9°C 42% 32.0 mph W51.5 kmh W 48.0 mph77.2 kmh 29.48 in998.3 mb 0.00 in0.0 mm 0.00 in/hr0.0 mm/hr 0.00 in0.0 mm
03:45 PM 37.0°F2.8°C 16.0°F-8.9°C 42% 37.0 mph NW59.5 kmh NW 46.0 mph74.0 kmh 29.49 in998.6 mb 0.00 in0.0 mm 0.00 in/hr0.0 mm/hr 0.00 in0.0 mm
03:50 PM 37.0°F2.8°C 16.0°F-8.9°C 42% 28.0 mph WSW45.1 kmh WSW 47.0 mph75.6 kmh 29.49 in998.6 mb 0.00 in0.0 mm 0.00 in/hr0.0 mm/hr 0.00 in0.0 mm
03:55 PM 37.2°F2.9°C 15.6°F-9.1°C 41% 37.0 mph WSW59.5 kmh WSW 52.0 mph83.7 kmh 29.49 in998.6 mb 0.00 in0.0 mm 0.00 in/hr0.0 mm/hr 0.00 in0.0 mm
04:00 PM 37.3°F2.9°C 15.7°F-9.1°C 41% 35.0 mph W56.3 kmh W 46.0 mph74.0 kmh 29.53 in1000.0 mb 0.00 in0.0 mm 0.00 in/hr0.0 mm/hr 0.00 in0.0 mm
04:05 PM 37.3°F2.9°C 15.7°F-9.1°C 41% 30.0 mph W48.3 kmh W 47.0 mph75.6 kmh 29.53 in1000.0 mb 0.00 in0.0 mm 0.00 in/hr0.0 mm/hr 0.00 in0.0 mm
04:10 PM 37.0°F2.8°C 16.6°F-8.6°C 43% 20.0 mph SW32.2 kmh SW 43.0 mph69.2 kmh 29.53 in1000.0 mb 0.00 in0.0 mm 0.00 in/hr0.0 mm/hr 0.00 in0.0 mm
04:15 PM 36.8°F2.7°C 16.9°F-8.4°C 44% 24.0 mph W38.6 kmh W 31.0 mph49.9 kmh 29.54 in1000.3 mb 0.00 in0.0 mm 0.00 in/hr0.0 mm/hr 0.00 in0.0 mm
04:20 PM 37.0°F2.8°C 16.0°F-8.9°C 42% 20.0 mph W32.2 kmh W 37.0 mph59.5 kmh 29.54 in1000.3 mb 0.00 in0.0 mm 0.00 in/hr0.0 mm/hr 0.00 in0.0 mm
04:25 PM 37.0°F2.8°C 16.0°F-8.9°C 42% 21.0 mph W33.8 kmh W 39.0 mph62.8 kmh 29.54 in1000.3 mb 0.00 in0.0 mm 0.00 in/hr0.0 mm/hr 0.00 in0.0 mm
04:30 PM 37.2°F2.9°C 16.2°F-8.8°C 42% 27.0 mph WSW43.5 kmh WSW 40.0 mph64.4 kmh 29.55 in1000.7 mb 0.00 in0.0 mm 0.00 in/hr0.0 mm/hr 0.00 in0.0 mm
04:35 PM 37.3°F2.9°C 16.3°F-8.7°C 42% 32.0 mph WSW51.5 kmh WSW 37.0 mph59.5 kmh 29.55 in1000.7 mb 0.00 in0.0 mm 0.00 in/hr0.0 mm/hr 0.00 in0.0 mm
04:40 PM 36.6°F2.6°C 16.7°F-8.5°C 44% 10.0 mph W16.1 kmh W 35.0 mph56.3 kmh 29.55 in1000.7 mb 0.00 in0.0 mm 0.00 in/hr0.0 mm/hr 0.00 in0.0 mm
04:45 PM 36.5°F2.5°C 17.2°F-8.2°C 45% 22.0 mph NNW35.4 kmh NNW 30.0 mph48.3 kmh 29.55 in1000.7 mb 0.00 in0.0 mm 0.00 in/hr0.0 mm/hr 0.00 in0.0 mm
04:50 PM 36.9°F2.7°C 16.5°F-8.6°C 43% 19.0 mph WSW30.6 kmh WSW 34.0 mph54.7 kmh 29.55 in1000.7 mb 0.00 in0.0 mm 0.00 in/hr0.0 mm/hr 0.00 in0.0 mm
04:55 PM 37.3°F2.9°C 16.3°F-8.7°C 42% 22.0 mph SW35.4 kmh SW 39.0 mph62.8 kmh 29.55 in1000.7 mb 0.00 in0.0 mm 0.00 in/hr0.0 mm/hr 0.00 in0.0 mm
05:00 PM 37.3°F2.9°C 15.7°F-9.1°C 41% 24.0 mph WSW38.6 kmh WSW 39.0 mph62.8 kmh 29.56 in1001.0 mb 0.00 in0.0 mm 0.00 in/hr0.0 mm/hr 0.00 in0.0 mm
05:05 PM 37.3°F2.9°C 16.3°F-8.7°C 42% 18.0 mph WSW29.0 kmh WSW 34.0 mph54.7 kmh 29.56 in1001.0 mb 0.00 in0.0 mm 0.00 in/hr0.0 mm/hr 0.00 in0.0 mm
05:10 PM 37.0°F2.8°C 16.6°F-8.6°C 43% 27.0 mph WSW43.5 kmh WSW 37.0 mph59.5 kmh 29.56 in1001.0 mb 0.00 in0.0 mm 0.00 in/hr0.0 mm/hr 0.00 in0.0 mm
05:15 PM 36.8°F2.7°C 16.9°F-8.4°C 44% 18.0 mph SW29.0 kmh SW 35.0 mph56.3 kmh 29.55 in1000.7 mb 0.00 in0.0 mm 0.00 in/hr0.0 mm/hr 0.00 in0.0 mm
05:20 PM 36.6°F2.6°C 17.2°F-8.2°C 45% 11.0 mph WSW17.7 kmh WSW 30.0 mph48.3 kmh 29.55 in1000.7 mb 0.00 in0.0 mm 0.00 in/hr0.0 mm/hr 0.00 in0.0 mm
05:25 PM 36.5°F2.5°C 17.2°F-8.2°C 45% 20.0 mph WSW32.2 kmh WSW 27.0 mph43.5 kmh 29.55 in1000.7 mb 0.00 in0.0 mm 0.00 in/hr0.0 mm/hr 0.00 in0.0 mm
05:30 PM 36.2°F2.3°C 17.9°F-7.8°C 47% 10.0 mph WSW16.1 kmh WSW 26.0 mph41.8 kmh 29.57 in1001.4 mb 0.00 in0.0 mm 0.00 in/hr0.0 mm/hr 0.00 in0.0 mm
05:35 PM 36.2°F2.3°C 17.9°F-7.8°C 47% 16.0 mph WSW25.7 kmh WSW 28.0 mph45.1 kmh 29.57 in1001.4 mb 0.00 in0.0 mm 0.00 in/hr0.0 mm/hr 0.00 in0.0 mm
05:40 PM 35.9°F2.2°C 18.1°F-7.7°C 48% 18.0 mph WSW29.0 kmh WSW 31.0 mph49.9 kmh 29.57 in1001.4 mb 0.00 in0.0 mm 0.00 in/hr0.0 mm/hr 0.00 in0.0 mm
05:45 PM 35.6°F2.0°C 16.8°F-8.4°C 46% 10.0 mph WSW16.1 kmh WSW 23.0 mph37.0 kmh 29.58 in1001.7 mb 0.00 in0.0 mm 0.00 in/hr0.0 mm/hr 0.00 in0.0 mm
05:50 PM 35.5°F1.9°C 17.7°F-7.9°C 48% 16.0 mph SW25.7 kmh SW 27.0 mph43.5 kmh 29.58 in1001.7 mb 0.00 in0.0 mm 0.00 in/hr0.0 mm/hr 0.00 in0.0 mm
05:55 PM 35.5°F1.9°C 18.7°F-7.4°C 50% 17.0 mph SW27.4 kmh SW 19.0 mph30.6 kmh 29.58 in1001.7 mb 0.00 in0.0 mm 0.00 in/hr0.0 mm/hr 0.00 in0.0 mm
06:00 PM 35.2°F1.8°C 18.9°F-7.3°C 51% 18.0 mph WSW29.0 kmh WSW 24.0 mph38.6 kmh 29.57 in1001.4 mb 0.00 in0.0 mm 0.00 in/hr0.0 mm/hr 0.00 in0.0 mm
06:05 PM 35.0°F1.7°C 18.2°F-7.7°C 50% 17.0 mph SW27.4 kmh SW 25.0 mph40.2 kmh 29.57 in1001.4 mb 0.00 in0.0 mm 0.00 in/hr0.0 mm/hr 0.00 in0.0 mm
06:10 PM 35.0°F1.7°C 19.1°F-7.2°C 52% 9.0 mph WSW14.5 kmh WSW 22.0 mph35.4 kmh 29.57 in1001.4 mb 0.00 in0.0 mm 0.00 in/hr0.0 mm/hr 0.00 in0.0 mm
06:15 PM 34.4°F1.3°C 19.0°F-7.2°C 53% 18.0 mph SW29.0 kmh SW 18.0 mph29.0 kmh 29.56 in1001.0 mb 0.00 in0.0 mm 0.00 in/hr0.0 mm/hr 0.00 in0.0 mm
06:20 PM 34.1°F1.2°C 19.2°F-7.1°C 54% 10.0 mph SW16.1 kmh SW 18.0 mph29.0 kmh 29.56 in1001.0 mb 0.00 in0.0 mm 0.00 in/hr0.0 mm/hr 0.00 in0.0 mm
06:25 PM 34.0°F1.1°C 19.5°F-6.9°C 55% 9.0 mph W14.5 kmh W 19.0 mph30.6 kmh 29.56 in1001.0 mb 0.00 in0.0 mm 0.00 in/hr0.0 mm/hr 0.00 in0.0 mm
06:30 PM 34.0°F1.1°C 19.1°F-7.2°C 54% 12.0 mph WSW19.3 kmh WSW 18.0 mph29.0 kmh 29.54 in1000.3 mb 0.00 in0.0 mm 0.00 in/hr0.0 mm/hr 0.00 in0.0 mm
06:35 PM 33.8°F1.0°C 19.3°F-7.1°C 55% 5.0 mph WSW8.0 kmh WSW 20.0 mph32.2 kmh 29.54 in1000.3 mb 0.00 in0.0 mm 0.00 in/hr0.0 mm/hr 0.00 in0.0 mm
06:40 PM 34.0°F1.1°C 19.1°F-7.2°C 54% 10.0 mph SSW16.1 kmh SSW 17.0 mph27.4 kmh 29.54 in1000.3 mb 0.00 in0.0 mm 0.00 in/hr0.0 mm/hr 0.00 in0.0 mm
06:45 PM 34.1°F1.2°C 18.7°F-7.4°C 53% 6.0 mph SW9.7 kmh SW 14.0 mph22.5 kmh 29.54 in1000.3 mb 0.00 in0.0 mm 0.00 in/hr0.0 mm/hr 0.00 in0.0 mm
06:50 PM 34.3°F1.3°C 18.9°F-7.3°C 53% 5.0 mph SW8.0 kmh SW 17.0 mph27.4 kmh 29.54 in1000.3 mb 0.00 in0.0 mm 0.00 in/hr0.0 mm/hr 0.00 in0.0 mm
06:55 PM 34.3°F1.3°C 18.9°F-7.3°C 53% 12.0 mph S19.3 kmh S 16.0 mph25.7 kmh 29.54 in1000.3 mb 0.00 in0.0 mm 0.00 in/hr0.0 mm/hr 0.00 in0.0 mm
07:00 PM 34.3°F1.3°C 19.4°F-7.0°C 54% 6.0 mph S9.7 kmh S 19.0 mph30.6 kmh 29.52 in999.7 mb 0.00 in0.0 mm 0.00 in/hr0.0 mm/hr 0.00 in0.0 mm
07:05 PM 34.1°F1.2°C 19.2°F-7.1°C 54% 4.0 mph SSW6.4 kmh SSW 14.0 mph22.5 kmh 29.52 in999.7 mb 0.00 in0.0 mm 0.00 in/hr0.0 mm/hr 0.00 in0.0 mm
07:10 PM 34.1°F1.2°C 19.2°F-7.1°C 54% 11.0 mph S17.7 kmh S 17.0 mph27.4 kmh 29.52 in999.7 mb 0.00 in0.0 mm 0.00 in/hr0.0 mm/hr 0.00 in0.0 mm
07:15 PM 34.3°F1.3°C 18.9°F-7.3°C 53% 4.0 mph WSW6.4 kmh WSW 19.0 mph30.6 kmh 29.49 in998.6 mb 0.00 in0.0 mm 0.00 in/hr0.0 mm/hr 0.00 in0.0 mm
07:20 PM 34.3°F1.3°C 19.4°F-7.0°C 54% 4.0 mph S6.4 kmh S 10.0 mph16.1 kmh 29.49 in998.6 mb 0.00 in0.0 mm 0.00 in/hr0.0 mm/hr 0.00 in0.0 mm
07:25 PM 34.6°F1.4°C 18.8°F-7.3°C 52% 10.0 mph S16.1 kmh S 16.0 mph25.7 kmh 29.49 in998.6 mb 0.00 in0.0 mm 0.00 in/hr0.0 mm/hr 0.00 in0.0 mm
07:30 PM 34.3°F1.3°C 19.4°F-7.0°C 54% 4.0 mph SSW6.4 kmh SSW 13.0 mph20.9 kmh 29.48 in998.3 mb 0.00 in0.0 mm 0.00 in/hr0.0 mm/hr 0.00 in0.0 mm
07:35 PM 34.0°F1.1°C 19.1°F-7.2°C 54% 8.0 mph SSW12.9 kmh SSW 13.0 mph20.9 kmh 29.48 in998.3 mb 0.00 in0.0 mm 0.00 in/hr0.0 mm/hr 0.00 in0.0 mm
07:40 PM 34.1°F1.2°C 19.2°F-7.1°C 54% 5.0 mph SW8.0 kmh SW 9.0 mph14.5 kmh 29.48 in998.3 mb 0.00 in0.0 mm 0.00 in/hr0.0 mm/hr 0.00 in0.0 mm
07:45 PM 34.6°F1.4°C 18.3°F-7.6°C 51% 2.0 mph WSW3.2 kmh WSW 25.0 mph40.2 kmh 29.45 in997.3 mb 0.00 in0.0 mm 0.00 in/hr0.0 mm/hr 0.00 in0.0 mm
07:50 PM 34.9°F1.6°C 18.6°F-7.4°C 51% 1.0 mph SW1.6 kmh SW 10.0 mph16.1 kmh 29.45 in997.3 mb 0.00 in0.0 mm 0.00 in/hr0.0 mm/hr 0.00 in0.0 mm
07:55 PM 35.3°F1.8°C 17.5°F-8.1°C 48% 6.0 mph SSW9.7 kmh SSW 23.0 mph37.0 kmh 29.45 in997.3 mb 0.00 in0.0 mm 0.00 in/hr0.0 mm/hr 0.00 in0.0 mm
08:00 PM 35.5°F1.9°C 18.2°F-7.7°C 49% 5.0 mph S8.0 kmh S 14.0 mph22.5 kmh 29.44 in997.0 mb 0.00 in0.0 mm 0.00 in/hr0.0 mm/hr 0.00 in0.0 mm
08:05 PM 35.3°F1.8°C 18.5°F-7.5°C 50% 6.0 mph SW9.7 kmh SW 9.0 mph14.5 kmh 29.44 in997.0 mb 0.00 in0.0 mm 0.00 in/hr0.0 mm/hr 0.00 in0.0 mm
08:10 PM 35.3°F1.8°C 18.0°F-7.8°C 49% 17.0 mph SW27.4 kmh SW 18.0 mph29.0 kmh 29.44 in997.0 mb 0.00 in0.0 mm 0.00 in/hr0.0 mm/hr 0.00 in0.0 mm
08:15 PM 35.5°F1.9°C 17.7°F-7.9°C 48% 7.0 mph SSW11.3 kmh SSW 15.0 mph24.1 kmh 29.41 in995.9 mb 0.00 in0.0 mm 0.00 in/hr0.0 mm/hr 0.00 in0.0 mm
08:20 PM 35.8°F2.1°C 17.0°F-8.3°C 46% 8.0 mph W12.9 kmh W 22.0 mph35.4 kmh 29.41 in995.9 mb 0.00 in0.0 mm 0.00 in/hr0.0 mm/hr 0.00 in0.0 mm
08:25 PM 36.0°F2.2°C 16.7°F-8.5°C 45% 6.0 mph W9.7 kmh W 21.0 mph33.8 kmh 29.41 in995.9 mb 0.00 in0.0 mm 0.00 in/hr0.0 mm/hr 0.00 in0.0 mm
08:31 PM 36.2°F2.3°C 17.4°F-8.1°C 46% 13.0 mph SW20.9 kmh SW 27.0 mph43.5 kmh 29.39 in995.3 mb 0.00 in0.0 mm 0.00 in/hr0.0 mm/hr 0.00 in0.0 mm
08:35 PM 36.0°F2.2°C 17.2°F-8.2°C 46% 14.0 mph NW22.5 kmh NW 17.0 mph27.4 kmh 29.39 in995.3 mb 0.00 in0.0 mm 0.00 in/hr0.0 mm/hr 0.00 in0.0 mm
08:40 PM 35.9°F2.2°C 17.1°F-8.3°C 46% 9.0 mph WSW14.5 kmh WSW 17.0 mph27.4 kmh 29.39 in995.3 mb 0.00 in0.0 mm 0.00 in/hr0.0 mm/hr 0.00 in0.0 mm
08:45 PM 35.9°F2.2°C 17.1°F-8.3°C 46% 4.0 mph WSW6.4 kmh WSW 21.0 mph33.8 kmh 29.37 in994.6 mb 0.00 in0.0 mm 0.00 in/hr0.0 mm/hr 0.00 in0.0 mm
08:50 PM 35.6°F2.0°C 17.3°F-8.2°C 47% 12.0 mph SW19.3 kmh SW 17.0 mph27.4 kmh 29.37 in994.6 mb 0.00 in0.0 mm 0.00 in/hr0.0 mm/hr 0.00 in0.0 mm
08:55 PM 35.5°F1.9°C 17.7°F-7.9°C 48% 11.0 mph WSW17.7 kmh WSW 26.0 mph41.8 kmh 29.37 in994.6 mb 0.00 in0.0 mm 0.00 in/hr0.0 mm/hr 0.00 in0.0 mm
09:00 PM 35.5°F1.9°C 17.7°F-7.9°C 48% 14.0 mph SSW22.5 kmh SSW 22.0 mph35.4 kmh 29.36 in994.2 mb 0.00 in0.0 mm 0.00 in/hr0.0 mm/hr 0.00 in0.0 mm
09:05 PM 35.5°F1.9°C 17.2°F-8.2°C 47% 10.0 mph SW16.1 kmh SW 20.0 mph32.2 kmh 29.36 in994.2 mb 0.00 in0.0 mm 0.00 in/hr0.0 mm/hr 0.00 in0.0 mm
09:10 PM 35.5°F1.9°C 17.2°F-8.2°C 47% 12.0 mph WSW19.3 kmh WSW 25.0 mph40.2 kmh 29.36 in994.2 mb 0.00 in0.0 mm 0.00 in/hr0.0 mm/hr 0.00 in0.0 mm
09:15 PM 35.6°F2.0°C 17.3°F-8.2°C 47% 11.0 mph W17.7 kmh W 31.0 mph49.9 kmh 29.35 in993.9 mb 0.00 in0.0 mm 0.00 in/hr0.0 mm/hr 0.00 in0.0 mm
09:20 PM 35.5°F1.9°C 17.2°F-8.2°C 47% 16.0 mph SW25.7 kmh SW 20.0 mph32.2 kmh 29.35 in993.9 mb 0.00 in0.0 mm 0.00 in/hr0.0 mm/hr 0.00 in0.0 mm
09:25 PM 35.5°F1.9°C 17.2°F-8.2°C 47% 7.0 mph WSW11.3 kmh WSW 24.0 mph38.6 kmh 29.35 in993.9 mb 0.00 in0.0 mm 0.00 in/hr0.0 mm/hr 0.00 in0.0 mm
09:30 PM 35.6°F2.0°C 16.8°F-8.4°C 46% 19.0 mph W30.6 kmh W 32.0 mph51.5 kmh 29.35 in993.9 mb 0.00 in0.0 mm 0.00 in/hr0.0 mm/hr 0.00 in0.0 mm
09:35 PM 35.6°F2.0°C 16.8°F-8.4°C 46% 16.0 mph W25.7 kmh W 30.0 mph48.3 kmh 29.35 in993.9 mb 0.00 in0.0 mm 0.00 in/hr0.0 mm/hr 0.00 in0.0 mm
09:40 PM 35.5°F1.9°C 17.2°F-8.2°C 47% 23.0 mph WSW37.0 kmh WSW 33.0 mph53.1 kmh 29.35 in993.9 mb 0.00 in0.0 mm 0.00 in/hr0.0 mm/hr 0.00 in0.0 mm
09:45 PM 35.0°F1.7°C 18.2°F-7.7°C 50% 23.0 mph WSW37.0 kmh WSW 34.0 mph54.7 kmh 29.33 in993.2 mb 0.00 in0.0 mm 0.00 in/hr0.0 mm/hr 0.00 in0.0 mm
09:50 PM 34.4°F1.3°C 18.6°F-7.4°C 52% 12.0 mph W19.3 kmh W 33.0 mph53.1 kmh 29.33 in993.2 mb 0.00 in0.0 mm 0.00 in/hr0.0 mm/hr 0.00 in0.0 mm
09:55 PM 34.0°F1.1°C 19.5°F-6.9°C 55% 19.0 mph WSW30.6 kmh WSW 29.0 mph46.7 kmh 29.33 in993.2 mb 0.00 in0.0 mm 0.00 in/hr0.0 mm/hr 0.00 in0.0 mm
10:00 PM 33.5°F0.8°C 19.9°F-6.7°C 57% 12.0 mph W19.3 kmh W 37.0 mph59.5 kmh 29.33 in993.2 mb 0.00 in0.0 mm 0.00 in/hr0.0 mm/hr 0.00 in0.0 mm
10:05 PM 33.4°F0.8°C 20.2°F-6.6°C 58% 12.0 mph WSW19.3 kmh WSW 31.0 mph49.9 kmh 29.33 in993.2 mb 0.00 in0.0 mm 0.00 in/hr0.0 mm/hr 0.00 in0.0 mm
10:10 PM 33.1°F0.6°C 19.9°F-6.7°C 58% 5.0 mph WSW8.0 kmh WSW 22.0 mph35.4 kmh 29.33 in993.2 mb 0.00 in0.0 mm 0.00 in/hr0.0 mm/hr 0.00 in0.0 mm
10:15 PM 33.1°F0.6°C 19.9°F-6.7°C 58% 9.0 mph WSW14.5 kmh WSW 24.0 mph38.6 kmh 29.32 in992.9 mb 0.00 in0.0 mm 0.00 in/hr0.0 mm/hr 0.00 in0.0 mm
10:20 PM 33.1°F0.6°C 19.5°F-6.9°C 57% 7.0 mph S11.3 kmh S 22.0 mph35.4 kmh 29.32 in992.9 mb 0.00 in0.0 mm 0.00 in/hr0.0 mm/hr 0.00 in0.0 mm
10:25 PM 33.2°F0.7°C 19.6°F-6.9°C 57% 9.0 mph W14.5 kmh W 26.0 mph41.8 kmh 29.32 in992.9 mb 0.00 in0.0 mm 0.00 in/hr0.0 mm/hr 0.00 in0.0 mm
10:30 PM 33.2°F0.7°C 19.6°F-6.9°C 57% 27.0 mph SW43.5 kmh SW 27.0 mph43.5 kmh 29.32 in992.9 mb 0.00 in0.0 mm 0.00 in/hr0.0 mm/hr 0.00 in0.0 mm
10:35 PM 33.1°F0.6°C 19.9°F-6.7°C 58% 8.0 mph SW12.9 kmh SW 29.0 mph46.7 kmh 29.32 in992.9 mb 0.00 in0.0 mm 0.00 in/hr0.0 mm/hr 0.00 in0.0 mm
10:40 PM 32.5°F0.3°C 20.5°F-6.4°C 61% 13.0 mph WSW20.9 kmh WSW 27.0 mph43.5 kmh 29.32 in992.9 mb 0.00 in0.0 mm 0.00 in/hr0.0 mm/hr 0.00 in0.0 mm
10:45 PM 32.4°F0.2°C 19.6°F-6.9°C 59% 26.0 mph W41.8 kmh W 39.0 mph62.8 kmh 29.29 in991.9 mb 0.00 in0.0 mm 0.00 in/hr0.0 mm/hr 0.00 in0.0 mm
10:50 PM 32.2°F0.1°C 19.8°F-6.8°C 60% 13.0 mph SW20.9 kmh SW 27.0 mph43.5 kmh 29.29 in991.9 mb 0.00 in0.0 mm 0.00 in/hr0.0 mm/hr 0.00 in0.0 mm
10:55 PM 32.1°F0.1°C 20.5°F-6.4°C 62% 16.0 mph SW25.7 kmh SW 34.0 mph54.7 kmh 29.29 in991.9 mb 0.00 in0.0 mm 0.00 in/hr0.0 mm/hr 0.00 in0.0 mm
11:00 PM 31.6°F-0.2°C 20.4°F-6.4°C 63% 13.0 mph WSW20.9 kmh WSW 46.0 mph74.0 kmh 29.29 in991.9 mb 0.00 in0.0 mm 0.00 in/hr0.0 mm/hr 0.00 in0.0 mm
11:05 PM 31.6°F-0.2°C 20.4°F-6.4°C 63% 18.0 mph SW29.0 kmh SW 37.0 mph59.5 kmh 29.29 in991.9 mb 0.00 in0.0 mm 0.00 in/hr0.0 mm/hr 0.00 in0.0 mm
11:10 PM 31.6°F-0.2°C 20.0°F-6.7°C 62% 22.0 mph SW35.4 kmh SW 34.0 mph54.7 kmh 29.29 in991.9 mb 0.00 in0.0 mm 0.00 in/hr0.0 mm/hr 0.00 in0.0 mm
11:15 PM 31.8°F-0.1°C 19.9°F-6.7°C 61% 20.0 mph SW32.2 kmh SW 35.0 mph56.3 kmh 29.27 in991.2 mb 0.00 in0.0 mm 0.00 in/hr0.0 mm/hr 0.00 in0.0 mm
11:20 PM 31.9°F-0.1°C 20.0°F-6.7°C 61% 29.0 mph SW46.7 kmh SW 36.0 mph57.9 kmh 29.27 in991.2 mb 0.00 in0.0 mm 0.00 in/hr0.0 mm/hr 0.00 in0.0 mm
11:25 PM 31.8°F-0.1°C 20.2°F-6.6°C 62% 20.0 mph WSW32.2 kmh WSW 42.0 mph67.6 kmh 29.27 in991.2 mb 0.00 in0.0 mm 0.00 in/hr0.0 mm/hr 0.00 in0.0 mm
11:30 PM 31.3°F-0.4°C 20.5°F-6.4°C 64% 20.0 mph SW32.2 kmh SW 37.0 mph59.5 kmh 29.27 in991.2 mb 0.00 in0.0 mm 0.00 in/hr0.0 mm/hr 0.00 in0.0 mm
11:35 PM 30.7°F-0.7°C 21.0°F-6.1°C 67% 18.0 mph W29.0 kmh W 32.0 mph51.5 kmh 29.27 in991.2 mb 0.00 in0.0 mm 0.00 in/hr0.0 mm/hr 0.00 in0.0 mm
11:40 PM 30.6°F-0.8°C 20.9°F-6.2°C 67% 17.0 mph W27.4 kmh W 32.0 mph51.5 kmh 29.27 in991.2 mb 0.00 in0.0 mm 0.00 in/hr0.0 mm/hr 0.00 in0.0 mm
11:45 PM 30.7°F-0.7°C 21.0°F-6.1°C 67% 17.0 mph SW27.4 kmh SW 41.0 mph66.0 kmh 29.26 in990.9 mb 0.00 in0.0 mm 0.00 in/hr0.0 mm/hr 0.00 in0.0 mm
11:50 PM 30.7°F-0.7°C 20.7°F-6.3°C 66% 12.0 mph WSW19.3 kmh WSW 39.0 mph62.8 kmh 29.26 in990.9 mb 0.00 in0.0 mm 0.00 in/hr0.0 mm/hr 0.00 in0.0 mm
11:55 PM 30.7°F-0.7°C 20.7°F-6.3°C 66% 14.0 mph WSW22.5 kmh WSW 30.0 mph48.3 kmh 29.26 in990.9 mb 0.00 in0.0 mm 0.00 in/hr0.0 mm/hr 0.00 in0.0 mm